sensor_id;sensor_type;location;lat;lon;timestamp;pressure;altitude;pressure_sealevel;temperature;humidity
28167;BME280;15455;53.376;-6.262;2024-01-30T00:01:46;102197.13;;;1.17;100.00
28167;BME280;15455;53.376;-6.262;2024-01-30T00:04:32;102198.16;;;1.21;100.00
28167;BME280;15455;53.376;-6.262;2024-01-30T00:07:18;102198.56;;;1.27;100.00
28167;BME280;15455;53.376;-6.262;2024-01-30T00:10:04;102195.78;;;1.24;100.00
28167;BME280;15455;53.376;-6.262;2024-01-30T00:12:51;102195.97;;;1.27;100.00
28167;BME280;15455;53.376;-6.262;2024-01-30T00:15:38;102196.94;;;1.29;100.00
28167;BME280;15455;53.376;-6.262;2024-01-30T00:18:23;102202.09;;;1.29;100.00
28167;BME280;15455;53.376;-6.262;2024-01-30T00:21:09;102204.31;;;1.23;100.00
28167;BME280;15455;53.376;-6.262;2024-01-30T00:23:54;102207.06;;;1.26;100.00
28167;BME280;15455;53.376;-6.262;2024-01-30T00:26:40;102209.63;;;1.26;100.00
28167;BME280;15455;53.376;-6.262;2024-01-30T00:29:25;102205.00;;;1.20;100.00
28167;BME280;15455;53.376;-6.262;2024-01-30T00:32:15;102214.72;;;1.11;100.00
28167;BME280;15455;53.376;-6.262;2024-01-30T00:35:01;102209.50;;;1.10;100.00
28167;BME280;15455;53.376;-6.262;2024-01-30T00:37:47;102211.09;;;1.08;100.00
28167;BME280;15455;53.376;-6.262;2024-01-30T00:40:33;102229.47;;;1.14;100.00
28167;BME280;15455;53.376;-6.262;2024-01-30T00:43:18;102224.78;;;1.21;100.00
28167;BME280;15455;53.376;-6.262;2024-01-30T00:46:05;102228.50;;;1.27;100.00
28167;BME280;15455;53.376;-6.262;2024-01-30T00:48:50;102225.06;;;1.26;100.00
28167;BME280;15455;53.376;-6.262;2024-01-30T00:51:36;102226.47;;;1.21;100.00
28167;BME280;15455;53.376;-6.262;2024-01-30T00:54:21;102223.53;;;1.15;100.00
28167;BME280;15455;53.376;-6.262;2024-01-30T00:57:07;102225.13;;;1.13;100.00
28167;BME280;15455;53.376;-6.262;2024-01-30T00:59:53;102229.28;;;1.11;100.00
28167;BME280;15455;53.376;-6.262;2024-01-30T01:02:39;102232.38;;;1.05;100.00
28167;BME280;15455;53.376;-6.262;2024-01-30T01:05:25;102240.50;;;0.98;100.00
28167;BME280;15455;53.376;-6.262;2024-01-30T01:08:11;102232.69;;;0.96;100.00
28167;BME280;15455;53.376;-6.262;2024-01-30T01:10:56;102244.69;;;0.96;100.00
28167;BME280;15455;53.376;-6.262;2024-01-30T01:13:42;102240.41;;;0.96;100.00
28167;BME280;15455;53.376;-6.262;2024-01-30T01:16:27;102250.50;;;0.93;100.00
28167;BME280;15455;53.376;-6.262;2024-01-30T01:19:13;102248.72;;;0.92;100.00
28167;BME280;15455;53.376;-6.262;2024-01-30T01:21:59;102243.59;;;0.92;100.00
28167;BME280;15455;53.376;-6.262;2024-01-30T01:24:45;102253.78;;;0.91;100.00
28167;BME280;15455;53.376;-6.262;2024-01-30T01:27:30;102264.97;;;0.91;100.00
28167;BME280;15455;53.376;-6.262;2024-01-30T01:30:17;102264.66;;;0.86;100.00
28167;BME280;15455;53.376;-6.262;2024-01-30T01:33:09;102268.91;;;0.86;100.00
28167;BME280;15455;53.376;-6.262;2024-01-30T01:35:56;102269.53;;;0.82;100.00
28167;BME280;15455;53.376;-6.262;2024-01-30T01:38:41;102272.59;;;0.76;100.00
28167;BME280;15455;53.376;-6.262;2024-01-30T01:41:30;102267.78;;;0.67;100.00
28167;BME280;15455;53.376;-6.262;2024-01-30T01:44:17;102271.03;;;0.65;100.00
28167;BME280;15455;53.376;-6.262;2024-01-30T01:47:03;102268.69;;;0.55;100.00
28167;BME280;15455;53.376;-6.262;2024-01-30T01:49:49;102276.69;;;0.46;100.00
28167;BME280;15455;53.376;-6.262;2024-01-30T01:52:36;102281.44;;;0.40;100.00
28167;BME280;15455;53.376;-6.262;2024-01-30T01:55:22;102286.31;;;0.35;100.00
28167;BME280;15455;53.376;-6.262;2024-01-30T01:58:10;102293.59;;;0.29;100.00
28167;BME280;15455;53.376;-6.262;2024-01-30T02:00:58;102302.78;;;0.25;100.00
28167;BME280;15455;53.376;-6.262;2024-01-30T02:03:45;102305.94;;;0.21;100.00
28167;BME280;15455;53.376;-6.262;2024-01-30T02:06:32;102304.88;;;0.17;100.00
28167;BME280;15455;53.376;-6.262;2024-01-30T02:09:17;102308.69;;;0.11;100.00
28167;BME280;15455;53.376;-6.262;2024-01-30T02:12:04;102307.19;;;0.01;100.00
28167;BME280;15455;53.376;-6.262;2024-01-30T02:14:50;102312.13;;;-0.02;100.00
28167;BME280;15455;53.376;-6.262;2024-01-30T02:17:36;102308.59;;;-0.04;100.00
28167;BME280;15455;53.376;-6.262;2024-01-30T02:20:26;102312.63;;;-0.08;100.00
28167;BME280;15455;53.376;-6.262;2024-01-30T02:23:15;102320.22;;;-0.09;100.00
28167;BME280;15455;53.376;-6.262;2024-01-30T02:26:01;102326.13;;;-0.10;100.00
28167;BME280;15455;53.376;-6.262;2024-01-30T02:28:46;102328.69;;;-0.10;100.00
28167;BME280;15455;53.376;-6.262;2024-01-30T02:31:32;102329.59;;;-0.10;100.00
28167;BME280;15455;53.376;-6.262;2024-01-30T02:34:18;102331.75;;;-0.16;100.00
28167;BME280;15455;53.376;-6.262;2024-01-30T02:37:04;102334.91;;;-0.20;100.00
28167;BME280;15455;53.376;-6.262;2024-01-30T02:39:50;102345.56;;;-0.27;100.00
28167;BME280;15455;53.376;-6.262;2024-01-30T02:42:36;102342.88;;;-0.29;100.00
28167;BME280;15455;53.376;-6.262;2024-01-30T02:45:21;102340.09;;;-0.32;100.00
28167;BME280;15455;53.376;-6.262;2024-01-30T02:48:07;102347.56;;;-0.35;100.00
28167;BME280;15455;53.376;-6.262;2024-01-30T02:50:53;102348.38;;;-0.36;100.00
28167;BME280;15455;53.376;-6.262;2024-01-30T02:53:38;102348.06;;;-0.41;100.00
28167;BME280;15455;53.376;-6.262;2024-01-30T02:56:24;102344.59;;;-0.41;100.00
28167;BME280;15455;53.376;-6.262;2024-01-30T02:59:10;102353.88;;;-0.43;100.00
28167;BME280;15455;53.376;-6.262;2024-01-30T03:01:55;102350.41;;;-0.44;100.00
28167;BME280;15455;53.376;-6.262;2024-01-30T03:04:42;102351.19;;;-0.45;100.00
28167;BME280;15455;53.376;-6.262;2024-01-30T03:07:27;102353.88;;;-0.43;100.00
28167;BME280;15455;53.376;-6.262;2024-01-30T03:10:13;102358.78;;;-0.46;100.00
28167;BME280;15455;53.376;-6.262;2024-01-30T03:12:59;102368.16;;;-0.47;100.00
28167;BME280;15455;53.376;-6.262;2024-01-30T03:15:45;102369.28;;;-0.55;100.00
28167;BME280;15455;53.376;-6.262;2024-01-30T03:18:30;102362.88;;;-0.62;100.00
28167;BME280;15455;53.376;-6.262;2024-01-30T03:21:15;102365.13;;;-0.66;100.00
28167;BME280;15455;53.376;-6.262;2024-01-30T03:24:01;102370.66;;;-0.60;100.00
28167;BME280;15455;53.376;-6.262;2024-01-30T03:26:46;102380.66;;;-0.51;100.00
28167;BME280;15455;53.376;-6.262;2024-01-30T03:29:32;102381.75;;;-0.48;100.00
28167;BME280;15455;53.376;-6.262;2024-01-30T03:32:18;102385.34;;;-0.46;100.00
28167;BME280;15455;53.376;-6.262;2024-01-30T03:35:04;102394.00;;;-0.44;100.00
28167;BME280;15455;53.376;-6.262;2024-01-30T03:37:50;102401.81;;;-0.42;100.00
28167;BME280;15455;53.376;-6.262;2024-01-30T03:40:35;102398.56;;;-0.40;100.00
28167;BME280;15455;53.376;-6.262;2024-01-30T03:43:21;102398.56;;;-0.40;100.00
28167;BME280;15455;53.376;-6.262;2024-01-30T03:46:06;102396.69;;;-0.42;100.00
28167;BME280;15455;53.376;-6.262;2024-01-30T03:48:52;102394.94;;;-0.43;100.00
28167;BME280;15455;53.376;-6.262;2024-01-30T03:51:38;102398.94;;;-0.47;100.00
28167;BME280;15455;53.376;-6.262;2024-01-30T03:54:24;102402.28;;;-0.48;100.00
28167;BME280;15455;53.376;-6.262;2024-01-30T03:57:10;102399.50;;;-0.51;100.00
28167;BME280;15455;53.376;-6.262;2024-01-30T03:59:56;102400.06;;;-0.55;100.00
28167;BME280;15455;53.376;-6.262;2024-01-30T04:02:45;102396.53;;;-0.57;100.00
28167;BME280;15455;53.376;-6.262;2024-01-30T04:05:30;102411.13;;;-0.56;100.00
28167;BME280;15455;53.376;-6.262;2024-01-30T04:08:16;102417.25;;;-0.54;100.00
28167;BME280;15455;53.376;-6.262;2024-01-30T04:11:05;102426.94;;;-0.50;100.00
28167;BME280;15455;53.376;-6.262;2024-01-30T04:13:51;102420.78;;;-0.52;100.00
28167;BME280;15455;53.376;-6.262;2024-01-30T04:16:36;102423.97;;;-0.56;100.00
28167;BME280;15455;53.376;-6.262;2024-01-30T04:19:22;102424.53;;;-0.60;100.00
28167;BME280;15455;53.376;-6.262;2024-01-30T04:22:08;102430.22;;;-0.64;100.00
28167;BME280;15455;53.376;-6.262;2024-01-30T04:24:54;102440.25;;;-0.67;100.00
28167;BME280;15455;53.376;-6.262;2024-01-30T04:27:40;102443.59;;;-0.68;100.00
28167;BME280;15455;53.376;-6.262;2024-01-30T04:30:25;102447.84;;;-0.69;100.00
28167;BME280;15455;53.376;-6.262;2024-01-30T04:33:11;102458.09;;;-0.69;100.00
28167;BME280;15455;53.376;-6.262;2024-01-30T04:35:57;102450.09;;;-0.74;100.00
28167;BME280;15455;53.376;-6.262;2024-01-30T04:38:42;102456.19;;;-0.72;100.00
28167;BME280;15455;53.376;-6.262;2024-01-30T04:41:28;102461.66;;;-0.79;100.00
28167;BME280;15455;53.376;-6.262;2024-01-30T04:44:16;102475.81;;;-0.84;100.00
28167;BME280;15455;53.376;-6.262;2024-01-30T04:47:02;102467.91;;;-0.87;100.00
28167;BME280;15455;53.376;-6.262;2024-01-30T04:49:51;102478.16;;;-0.87;100.00
28167;BME280;15455;53.376;-6.262;2024-01-30T04:52:37;102475.38;;;-0.90;100.00
28167;BME280;15455;53.376;-6.262;2024-01-30T04:55:22;102478.38;;;-0.96;100.00
28167;BME280;15455;53.376;-6.262;2024-01-30T04:58:08;102480.06;;;-0.96;100.00
28167;BME280;15455;53.376;-6.262;2024-01-30T05:00:53;102482.53;;;-0.98;100.00
28167;BME280;15455;53.376;-6.262;2024-01-30T05:03:39;102483.09;;;-1.02;100.00
28167;BME280;15455;53.376;-6.262;2024-01-30T05:06:26;102488.97;;;-1.03;100.00
28167;BME280;15455;53.376;-6.262;2024-01-30T05:09:12;102485.22;;;-1.08;100.00
28167;BME280;15455;53.376;-6.262;2024-01-30T05:11:57;102494.09;;;-1.15;100.00
28167;BME280;15455;53.376;-6.262;2024-01-30T05:14:43;102494.53;;;-1.20;100.00
28167;BME280;15455;53.376;-6.262;2024-01-30T05:17:29;102491.00;;;-1.23;100.00
28167;BME280;15455;53.376;-6.262;2024-01-30T05:20:16;102501.00;;;-1.26;100.00
28167;BME280;15455;53.376;-6.262;2024-01-30T05:23:02;102511.38;;;-1.24;100.00
28167;BME280;15455;53.376;-6.262;2024-01-30T05:25:48;102510.56;;;-1.23;100.00
28167;BME280;15455;53.376;-6.262;2024-01-30T05:28:33;102519.06;;;-1.24;100.00
28167;BME280;15455;53.376;-6.262;2024-01-30T05:31:19;102526.75;;;-1.24;100.00
28167;BME280;15455;53.376;-6.262;2024-01-30T05:34:04;102525.72;;;-1.26;100.00
28167;BME280;15455;53.376;-6.262;2024-01-30T05:36:52;102526.38;;;-1.29;100.00
28167;BME280;15455;53.376;-6.262;2024-01-30T05:39:37;102534.84;;;-1.30;100.00
28167;BME280;15455;53.376;-6.262;2024-01-30T05:42:23;102533.81;;;-1.32;100.00
28167;BME280;15455;53.376;-6.262;2024-01-30T05:45:08;102543.19;;;-1.32;100.00
28167;BME280;15455;53.376;-6.262;2024-01-30T05:47:54;102535.41;;;-1.34;100.00
28167;BME280;15455;53.376;-6.262;2024-01-30T05:50:40;102538.72;;;-1.35;100.00
28167;BME280;15455;53.376;-6.262;2024-01-30T05:53:25;102540.41;;;-1.35;100.00
28167;BME280;15455;53.376;-6.262;2024-01-30T05:56:11;102547.88;;;-1.38;100.00
28167;BME280;15455;53.376;-6.262;2024-01-30T05:58:56;102551.84;;;-1.42;100.00
28167;BME280;15455;53.376;-6.262;2024-01-30T06:01:46;102561.22;;;-1.43;100.00
28167;BME280;15455;53.376;-6.262;2024-01-30T06:04:33;102563.66;;;-1.44;100.00
28167;BME280;15455;53.376;-6.262;2024-01-30T06:07:19;102566.09;;;-1.46;100.00
28167;BME280;15455;53.376;-6.262;2024-01-30T06:10:06;102573.78;;;-1.46;100.00
28167;BME280;15455;53.376;-6.262;2024-01-30T06:12:52;102574.31;;;-1.50;100.00
28167;BME280;15455;53.376;-6.262;2024-01-30T06:15:38;102581.66;;;-1.54;100.00
28167;BME280;15455;53.376;-6.262;2024-01-30T06:18:23;102578.84;;;-1.58;100.00
28167;BME280;15455;53.376;-6.262;2024-01-30T06:21:09;102582.19;;;-1.59;100.00
28167;BME280;15455;53.376;-6.262;2024-01-30T06:23:57;102586.41;;;-1.59;100.00
28167;BME280;15455;53.376;-6.262;2024-01-30T06:26:43;102595.00;;;-1.59;100.00
28167;BME280;15455;53.376;-6.262;2024-01-30T06:29:29;102589.19;;;-1.56;100.00
28167;BME280;15455;53.376;-6.262;2024-01-30T06:32:14;102599.81;;;-1.51;100.00
28167;BME280;15455;53.376;-6.262;2024-01-30T06:35:01;102597.38;;;-1.50;100.00
28167;BME280;15455;53.376;-6.262;2024-01-30T06:37:47;102608.50;;;-1.49;100.00
28167;BME280;15455;53.376;-6.262;2024-01-30T06:40:33;102622.31;;;-1.47;100.00
28167;BME280;15455;53.376;-6.262;2024-01-30T06:43:18;102616.28;;;-1.48;100.00
28167;BME280;15455;53.376;-6.262;2024-01-30T06:46:04;102621.19;;;-1.51;100.00
28167;BME280;15455;53.376;-6.262;2024-01-30T06:48:50;102625.41;;;-1.51;100.00
28167;BME280;15455;53.376;-6.262;2024-01-30T06:51:35;102632.19;;;-1.52;100.00
28167;BME280;15455;53.376;-6.262;2024-01-30T06:54:21;102627.06;;;-1.52;100.00
28167;BME280;15455;53.376;-6.262;2024-01-30T06:57:07;102635.44;;;-1.54;100.00
28167;BME280;15455;53.376;-6.262;2024-01-30T06:59:57;102638.63;;;-1.57;100.00
28167;BME280;15455;53.376;-6.262;2024-01-30T07:02:43;102638.75;;;-1.55;100.00
28167;BME280;15455;53.376;-6.262;2024-01-30T07:05:28;102647.31;;;-1.55;100.00
28167;BME280;15455;53.376;-6.262;2024-01-30T07:08:15;102653.75;;;-1.60;100.00
28167;BME280;15455;53.376;-6.262;2024-01-30T07:11:02;102665.00;;;-1.58;100.00
28167;BME280;15455;53.376;-6.262;2024-01-30T07:13:49;102667.56;;;-1.58;100.00
28167;BME280;15455;53.376;-6.262;2024-01-30T07:16:35;102671.13;;;-1.56;100.00
28167;BME280;15455;53.376;-6.262;2024-01-30T07:19:21;102672.56;;;-1.60;100.00
28167;BME280;15455;53.376;-6.262;2024-01-30T07:22:07;102679.38;;;-1.60;100.00
28167;BME280;15455;53.376;-6.262;2024-01-30T07:24:53;102672.44;;;-1.61;100.00
28167;BME280;15455;53.376;-6.262;2024-01-30T07:27:39;102681.81;;;-1.62;100.00
28167;BME280;15455;53.376;-6.262;2024-01-30T07:30:24;102674.25;;;-1.60;100.00
28167;BME280;15455;53.376;-6.262;2024-01-30T07:33:10;102675.13;;;-1.60;100.00
28167;BME280;15455;53.376;-6.262;2024-01-30T07:35:55;102681.94;;;-1.60;100.00
28167;BME280;15455;53.376;-6.262;2024-01-30T07:38:41;102685.38;;;-1.60;100.00
28167;BME280;15455;53.376;-6.262;2024-01-30T07:41:26;102689.84;;;-1.57;100.00
28167;BME280;15455;53.376;-6.262;2024-01-30T07:44:12;102703.66;;;-1.55;100.00
28167;BME280;15455;53.376;-6.262;2024-01-30T07:46:57;102705.56;;;-1.52;100.00
28167;BME280;15455;53.376;-6.262;2024-01-30T07:49:43;102711.31;;;-1.55;100.00
28167;BME280;15455;53.376;-6.262;2024-01-30T07:52:29;102721.56;;;-1.55;100.00
28167;BME280;15455;53.376;-6.262;2024-01-30T07:55:15;102722.34;;;-1.56;100.00
28167;BME280;15455;53.376;-6.262;2024-01-30T07:58:01;102728.25;;;-1.57;100.00
28167;BME280;15455;53.376;-6.262;2024-01-30T08:00:47;102733.38;;;-1.57;100.00
28167;BME280;15455;53.376;-6.262;2024-01-30T08:03:32;102735.13;;;-1.56;100.00
28167;BME280;15455;53.376;-6.262;2024-01-30T08:06:19;102734.72;;;-1.50;100.00
28167;BME280;15455;53.376;-6.262;2024-01-30T08:09:05;102737.28;;;-1.50;100.00
28167;BME280;15455;53.376;-6.262;2024-01-30T08:11:51;102740.75;;;-1.50;100.00
28167;BME280;15455;53.376;-6.262;2024-01-30T08:14:36;102744.44;;;-1.46;100.00
28167;BME280;15455;53.376;-6.262;2024-01-30T08:17:22;102744.56;;;-1.45;100.00
28167;BME280;15455;53.376;-6.262;2024-01-30T08:20:07;102753.28;;;-1.43;100.00
28167;BME280;15455;53.376;-6.262;2024-01-30T08:22:56;102763.28;;;-1.46;100.00
28167;BME280;15455;53.376;-6.262;2024-01-30T08:25:42;102761.59;;;-1.45;100.00
28167;BME280;15455;53.376;-6.262;2024-01-30T08:28:27;102766.59;;;-1.47;100.00
28167;BME280;15455;53.376;-6.262;2024-01-30T08:31:13;102770.06;;;-1.46;100.00
28167;BME280;15455;53.376;-6.262;2024-01-30T08:33:59;102776.56;;;-1.40;100.00
28167;BME280;15455;53.376;-6.262;2024-01-30T08:36:44;102782.03;;;-1.35;100.00
28167;BME280;15455;53.376;-6.262;2024-01-30T08:39:30;102779.72;;;-1.32;100.00
28167;BME280;15455;53.376;-6.262;2024-01-30T08:42:16;102793.16;;;-1.24;100.00
28167;BME280;15455;53.376;-6.262;2024-01-30T08:45:08;102786.59;;;-1.20;100.00
28167;BME280;15455;53.376;-6.262;2024-01-30T08:47:54;102790.31;;;-1.17;100.00
28167;BME280;15455;53.376;-6.262;2024-01-30T08:50:40;102782.44;;;-1.08;100.00
28167;BME280;15455;53.376;-6.262;2024-01-30T08:53:25;102781.88;;;-1.04;100.00
28167;BME280;15455;53.376;-6.262;2024-01-30T08:56:11;102780.56;;;-0.99;100.00
28167;BME280;15455;53.376;-6.262;2024-01-30T08:58:57;102790.41;;;-0.93;100.00
28167;BME280;15455;53.376;-6.262;2024-01-30T09:01:43;102782.94;;;-0.90;100.00
28167;BME280;15455;53.376;-6.262;2024-01-30T09:04:40;102790.09;;;-0.86;100.00
28167;BME280;15455;53.376;-6.262;2024-01-30T09:07:26;102798.25;;;-0.80;100.00
28167;BME280;15455;53.376;-6.262;2024-01-30T09:10:12;102795.28;;;-0.74;100.00
28167;BME280;15455;53.376;-6.262;2024-01-30T09:12:59;102801.78;;;-0.67;100.00
28167;BME280;15455;53.376;-6.262;2024-01-30T09:15:45;102802.78;;;-0.65;100.00
28167;BME280;15455;53.376;-6.262;2024-01-30T09:18:31;102807.47;;;-0.60;100.00
28167;BME280;15455;53.376;-6.262;2024-01-30T09:21:16;102813.56;;;-0.47;100.00
28167;BME280;15455;53.376;-6.262;2024-01-30T09:24:03;102825.38;;;-0.38;100.00
28167;BME280;15455;53.376;-6.262;2024-01-30T09:26:51;102822.66;;;-0.29;100.00
28167;BME280;15455;53.376;-6.262;2024-01-30T09:29:37;102834.25;;;-0.22;100.00
28167;BME280;15455;53.376;-6.262;2024-01-30T09:32:23;102838.19;;;-0.15;100.00
28167;BME280;15455;53.376;-6.262;2024-01-30T09:35:08;102843.78;;;-0.09;100.00
28167;BME280;15455;53.376;-6.262;2024-01-30T09:37:55;102835.63;;;-0.04;100.00
28167;BME280;15455;53.376;-6.262;2024-01-30T09:40:42;102835.97;;;0.01;100.00
28167;BME280;15455;53.376;-6.262;2024-01-30T09:43:32;102833.84;;;0.07;100.00
28167;BME280;15455;53.376;-6.262;2024-01-30T09:46:21;102842.03;;;0.13;100.00
28167;BME280;15455;53.376;-6.262;2024-01-30T09:49:09;102832.19;;;0.20;100.00
28167;BME280;15455;53.376;-6.262;2024-01-30T09:51:55;102837.88;;;0.27;100.00
28167;BME280;15455;53.376;-6.262;2024-01-30T09:54:41;102836.78;;;0.36;100.00
28167;BME280;15455;53.376;-6.262;2024-01-30T09:57:27;102841.81;;;0.46;100.00
28167;BME280;15455;53.376;-6.262;2024-01-30T10:00:13;102841.78;;;0.58;100.00
28167;BME280;15455;53.376;-6.262;2024-01-30T10:02:58;102837.44;;;0.68;100.00
28167;BME280;15455;53.376;-6.262;2024-01-30T10:05:50;102839.88;;;0.79;100.00
28167;BME280;15455;53.376;-6.262;2024-01-30T10:08:38;102850.13;;;0.91;100.00
28167;BME280;15455;53.376;-6.262;2024-01-30T10:11:23;102842.06;;;0.98;100.00
28167;BME280;15455;53.376;-6.262;2024-01-30T10:14:12;102834.00;;;1.05;100.00
28167;BME280;15455;53.376;-6.262;2024-01-30T10:16:57;102833.53;;;1.11;100.00
28167;BME280;15455;53.376;-6.262;2024-01-30T10:19:43;102824.69;;;1.19;100.00
28167;BME280;15455;53.376;-6.262;2024-01-30T10:22:30;102818.16;;;1.24;100.00
28167;BME280;15455;53.376;-6.262;2024-01-30T10:25:16;102825.53;;;1.31;100.00
28167;BME280;15455;53.376;-6.262;2024-01-30T10:28:01;102832.78;;;1.37;100.00
28167;BME280;15455;53.376;-6.262;2024-01-30T10:30:57;102829.63;;;1.41;100.00
28167;BME280;15455;53.376;-6.262;2024-01-30T10:33:45;102835.19;;;1.47;100.00
28167;BME280;15455;53.376;-6.262;2024-01-30T10:36:34;102836.41;;;1.52;100.00
28167;BME280;15455;53.376;-6.262;2024-01-30T10:39:28;102834.25;;;1.59;100.00
28167;BME280;15455;53.376;-6.262;2024-01-30T10:42:17;102829.63;;;1.66;100.00
28167;BME280;15455;53.376;-6.262;2024-01-30T10:45:07;102825.88;;;1.74;100.00
28167;BME280;15455;53.376;-6.262;2024-01-30T10:47:59;102825.84;;;1.86;100.00
28167;BME280;15455;53.376;-6.262;2024-01-30T10:50:46;102833.28;;;1.95;100.00
28167;BME280;15455;53.376;-6.262;2024-01-30T10:53:46;102834.16;;;2.09;100.00
28167;BME280;15455;53.376;-6.262;2024-01-30T10:56:32;102837.47;;;2.20;100.00
28167;BME280;15455;53.376;-6.262;2024-01-30T10:59:19;102833.91;;;2.31;100.00
28167;BME280;15455;53.376;-6.262;2024-01-30T11:02:06;102831.13;;;2.41;100.00
28167;BME280;15455;53.376;-6.262;2024-01-30T11:04:57;102833.41;;;2.50;100.00
28167;BME280;15455;53.376;-6.262;2024-01-30T11:07:44;102840.25;;;2.63;100.00
28167;BME280;15455;53.376;-6.262;2024-01-30T11:10:31;102850.94;;;2.69;100.00
28167;BME280;15455;53.376;-6.262;2024-01-30T11:13:19;102843.50;;;2.74;100.00
28167;BME280;15455;53.376;-6.262;2024-01-30T11:16:05;102850.72;;;2.80;100.00
28167;BME280;15455;53.376;-6.262;2024-01-30T11:18:51;102860.53;;;2.85;100.00
28167;BME280;15455;53.376;-6.262;2024-01-30T11:21:43;102869.16;;;2.99;100.00
28167;BME280;15455;53.376;-6.262;2024-01-30T11:24:29;102861.28;;;3.11;100.00
28167;BME280;15455;53.376;-6.262;2024-01-30T11:27:15;102858.41;;;3.20;100.00
28167;BME280;15455;53.376;-6.262;2024-01-30T11:30:02;102859.78;;;3.28;100.00
28167;BME280;15455;53.376;-6.262;2024-01-30T11:33:13;102864.59;;;3.37;100.00
28167;BME280;15455;53.376;-6.262;2024-01-30T11:36:00;102861.69;;;3.45;100.00
28167;BME280;15455;53.376;-6.262;2024-01-30T11:38:46;102858.59;;;3.51;100.00
28167;BME280;15455;53.376;-6.262;2024-01-30T11:41:32;102859.75;;;3.56;100.00
28167;BME280;15455;53.376;-6.262;2024-01-30T11:44:22;102855.75;;;3.61;100.00
28167;BME280;15455;53.376;-6.262;2024-01-30T11:47:09;102860.22;;;3.64;100.00
28167;BME280;15455;53.376;-6.262;2024-01-30T11:49:55;102862.81;;;3.64;100.00
28167;BME280;15455;53.376;-6.262;2024-01-30T11:52:45;102860.09;;;3.62;100.00
28167;BME280;15455;53.376;-6.262;2024-01-30T11:55:31;102854.84;;;3.61;100.00
28167;BME280;15455;53.376;-6.262;2024-01-30T11:58:19;102859.03;;;3.59;100.00
28167;BME280;15455;53.376;-6.262;2024-01-30T12:01:05;102861.44;;;3.56;100.00
28167;BME280;15455;53.376;-6.262;2024-01-30T12:03:51;102852.59;;;3.52;100.00
28167;BME280;15455;53.376;-6.262;2024-01-30T12:06:37;102830.81;;;3.47;100.00
28167;BME280;15455;53.376;-6.262;2024-01-30T12:09:23;102839.25;;;3.44;100.00
28167;BME280;15455;53.376;-6.262;2024-01-30T12:12:09;102840.94;;;3.44;100.00
28167;BME280;15455;53.376;-6.262;2024-01-30T12:14:57;102839.44;;;3.47;100.00
28167;BME280;15455;53.376;-6.262;2024-01-30T12:17:44;102840.78;;;3.56;100.00
28167;BME280;15455;53.376;-6.262;2024-01-30T12:20:29;102827.34;;;3.61;100.00
28167;BME280;15455;53.376;-6.262;2024-01-30T12:23:15;102819.00;;;3.65;100.00
28167;BME280;15455;53.376;-6.262;2024-01-30T12:26:01;102809.72;;;3.69;100.00
28167;BME280;15455;53.376;-6.262;2024-01-30T12:28:49;102809.72;;;3.69;100.00
28167;BME280;15455;53.376;-6.262;2024-01-30T12:31:35;102805.66;;;3.73;100.00
28167;BME280;15455;53.376;-6.262;2024-01-30T12:34:21;102807.66;;;3.78;100.00
28167;BME280;15455;53.376;-6.262;2024-01-30T12:37:07;102806.25;;;3.83;100.00
28167;BME280;15455;53.376;-6.262;2024-01-30T12:39:54;102808.56;;;3.94;100.00
28167;BME280;15455;53.376;-6.262;2024-01-30T12:42:40;102803.31;;;4.07;100.00
28167;BME280;15455;53.376;-6.262;2024-01-30T12:45:25;102804.19;;;4.23;100.00
28167;BME280;15455;53.376;-6.262;2024-01-30T12:48:11;102806.03;;;4.40;100.00
28167;BME280;15455;53.376;-6.262;2024-01-30T12:50:57;102808.13;;;4.62;100.00
28167;BME280;15455;53.376;-6.262;2024-01-30T12:53:43;102794.44;;;4.80;100.00
28167;BME280;15455;53.376;-6.262;2024-01-30T12:56:28;102785.88;;;4.97;100.00
28167;BME280;15455;53.376;-6.262;2024-01-30T12:59:14;102776.50;;;5.16;100.00
28167;BME280;15455;53.376;-6.262;2024-01-30T13:02:01;102765.66;;;5.23;100.00
28167;BME280;15455;53.376;-6.262;2024-01-30T13:04:46;102765.91;;;5.28;100.00
28167;BME280;15455;53.376;-6.262;2024-01-30T13:07:34;102771.94;;;5.28;100.00
28167;BME280;15455;53.376;-6.262;2024-01-30T13:10:21;102773.66;;;5.28;100.00
28167;BME280;15455;53.376;-6.262;2024-01-30T13:13:06;102781.59;;;5.31;100.00
28167;BME280;15455;53.376;-6.262;2024-01-30T13:16:01;102789.81;;;5.40;100.00
28167;BME280;15455;53.376;-6.262;2024-01-30T13:18:46;102792.25;;;5.53;100.00
28167;BME280;15455;53.376;-6.262;2024-01-30T13:21:32;102786.94;;;5.68;100.00
28167;BME280;15455;53.376;-6.262;2024-01-30T13:24:17;102786.81;;;5.83;100.00
28167;BME280;15455;53.376;-6.262;2024-01-30T13:27:07;102783.88;;;5.94;100.00
28167;BME280;15455;53.376;-6.262;2024-01-30T13:29:54;102780.66;;;5.98;100.00
28167;BME280;15455;53.376;-6.262;2024-01-30T13:32:39;102766.16;;;6.01;100.00
28167;BME280;15455;53.376;-6.262;2024-01-30T13:35:26;102768.22;;;6.08;100.00
28167;BME280;15455;53.376;-6.262;2024-01-30T13:38:12;102770.47;;;6.19;100.00
28167;BME280;15455;53.376;-6.262;2024-01-30T13:40:59;102768.34;;;6.30;100.00
28167;BME280;15455;53.376;-6.262;2024-01-30T13:43:45;102782.88;;;6.44;100.00
28167;BME280;15455;53.376;-6.262;2024-01-30T13:46:31;102784.13;;;6.52;100.00
28167;BME280;15455;53.376;-6.262;2024-01-30T13:49:17;102773.97;;;6.57;100.00
28167;BME280;15455;53.376;-6.262;2024-01-30T13:52:03;102767.22;;;6.60;100.00
28167;BME280;15455;53.376;-6.262;2024-01-30T13:54:49;102755.41;;;6.67;100.00
28167;BME280;15455;53.376;-6.262;2024-01-30T13:57:35;102759.25;;;6.75;100.00
28167;BME280;15455;53.376;-6.262;2024-01-30T14:00:22;102766.31;;;6.78;100.00
28167;BME280;15455;53.376;-6.262;2024-01-30T14:03:08;102760.31;;;6.79;100.00
28167;BME280;15455;53.376;-6.262;2024-01-30T14:05:53;102762.91;;;6.79;100.00
28167;BME280;15455;53.376;-6.262;2024-01-30T14:08:39;102756.00;;;6.80;100.00
28167;BME280;15455;53.376;-6.262;2024-01-30T14:11:29;102760.22;;;6.77;100.00
28167;BME280;15455;53.376;-6.262;2024-01-30T14:14:14;102754.06;;;6.75;100.00